createdAt,value
2023-03-26T00:01:15.803Z,20.30
2023-03-26T00:03:46.875Z,20.30
2023-03-26T00:06:15.856Z,20.20
2023-03-26T00:08:45.101Z,20.20
2023-03-26T00:11:16.021Z,20.10
2023-03-26T00:13:44.036Z,20.10
2023-03-26T00:16:13.647Z,20.10
2023-03-26T00:18:42.523Z,20.00
2023-03-26T00:21:12.992Z,20.00
2023-03-26T00:23:39.725Z,19.90
2023-03-26T00:26:10.633Z,19.90
2023-03-26T00:28:42.395Z,19.80
2023-03-26T00:31:12.249Z,19.80
2023-03-26T00:33:40.742Z,19.80
2023-03-26T00:36:11.170Z,19.80
2023-03-26T00:38:39.353Z,19.70
2023-03-26T00:41:17.230Z,19.70
2023-03-26T00:43:48.791Z,19.70
2023-03-26T00:46:15.869Z,19.60
2023-03-26T00:48:45.883Z,19.60
2023-03-26T00:51:17.972Z,19.50
2023-03-26T00:53:47.387Z,19.50
2023-03-26T00:56:14.369Z,19.50
2023-03-26T00:58:42.073Z,19.40
2023-03-26T01:01:14.965Z,19.40
2023-03-26T01:03:50.362Z,19.40
2023-03-26T01:06:32.865Z,19.40
2023-03-26T01:09:05.574Z,19.30
2023-03-26T01:11:34.982Z,19.30
2023-03-26T01:14:12.553Z,19.20
2023-03-26T01:16:50.074Z,19.20
2023-03-26T01:19:40.739Z,19.20
2023-03-26T01:22:11.079Z,19.20
2023-03-26T01:24:39.309Z,19.10
2023-03-26T01:27:40.941Z,19.10
2023-03-26T01:30:22.059Z,19.10
2023-03-26T01:33:05.403Z,19.00
2023-03-26T01:35:41.247Z,19.00
2023-03-26T01:38:16.775Z,19.00
2023-03-26T01:41:09.555Z,18.90
2023-03-26T01:43:47.506Z,18.90
2023-03-26T01:46:16.209Z,18.90
2023-03-26T01:48:45.545Z,18.90
2023-03-26T01:51:14.178Z,18.90
2023-03-26T01:53:47.429Z,18.80
2023-03-26T01:56:17.137Z,18.80
2023-03-26T01:58:56.794Z,18.80
2023-03-26T02:01:36.589Z,18.70
2023-03-26T02:04:35.868Z,18.70
2023-03-26T02:07:13.522Z,18.70
2023-03-26T02:09:47.555Z,18.60
2023-03-26T02:12:15.372Z,18.60
2023-03-26T02:14:43.192Z,18.60
2023-03-26T02:17:11.098Z,18.60
2023-03-26T02:19:42.288Z,18.60
2023-03-26T02:22:15.618Z,18.50
2023-03-26T02:24:44.966Z,18.50
2023-03-26T02:27:13.445Z,18.50
2023-03-26T02:29:41.177Z,18.50
2023-03-26T02:32:13.870Z,18.50
2023-03-26T02:34:41.770Z,18.40
2023-03-26T02:37:09.670Z,18.40
2023-03-26T02:39:38.202Z,18.40
2023-03-26T02:42:12.630Z,18.40
2023-03-26T02:44:46.446Z,18.40
2023-03-26T02:47:13.176Z,18.30
2023-03-26T02:49:51.964Z,18.40
2023-03-26T02:52:33.861Z,18.30
2023-03-26T02:55:00.591Z,18.30
2023-03-26T02:57:28.679Z,18.30
2023-03-26T03:00:16.133Z,18.20
2023-03-26T03:02:47.990Z,18.20
2023-03-26T03:05:31.856Z,18.20
2023-03-26T03:08:28.265Z,18.20
2023-03-26T03:11:16.434Z,18.20
2023-03-26T03:13:46.246Z,18.10
2023-03-26T03:16:17.705Z,18.10
2023-03-26T03:18:44.518Z,18.10
2023-03-26T03:21:11.680Z,18.00
2023-03-26T03:23:38.453Z,18.00
2023-03-26T03:26:16.105Z,18.00
2023-03-26T03:28:51.471Z,18.00
2023-03-26T03:31:18.410Z,18.00
2023-03-26T03:33:46.410Z,18.00
2023-03-26T03:36:20.520Z,18.00
2023-03-26T03:38:55.423Z,18.00
2023-03-26T03:41:23.594Z,17.90
2023-03-26T03:43:51.898Z,17.90
2023-03-26T03:46:25.209Z,17.90
2023-03-26T03:48:52.071Z,17.90
2023-03-26T03:51:26.699Z,17.80
2023-03-26T03:53:57.424Z,17.80
2023-03-26T03:56:42.560Z,17.80
2023-03-26T03:59:24.844Z,17.80
2023-03-26T04:01:51.948Z,17.80
2023-03-26T04:04:34.340Z,17.80
2023-03-26T04:07:04.591Z,17.70
2023-03-26T04:09:38.784Z,17.70
2023-03-26T04:12:13.375Z,17.70
2023-03-26T04:14:43.638Z,17.70
2023-03-26T04:17:21.916Z,17.70
2023-03-26T04:19:50.425Z,17.70
2023-03-26T04:22:19.445Z,17.70
2023-03-26T04:24:54.893Z,17.70
2023-03-26T04:27:30.242Z,17.70
2023-03-26T04:30:08.167Z,17.70
2023-03-26T04:32:35.367Z,17.70
2023-03-26T04:35:04.288Z,17.70
2023-03-26T04:37:39.820Z,17.60
2023-03-26T04:40:17.108Z,17.60
2023-03-26T04:43:06.352Z,17.60
2023-03-26T04:45:52.311Z,17.60
2023-03-26T04:48:21.858Z,17.60
2023-03-26T04:50:49.266Z,17.60
2023-03-26T04:53:21.468Z,17.60
2023-03-26T04:56:40.371Z,17.60
2023-03-26T04:59:30.360Z,17.60
2023-03-26T05:01:59.995Z,17.60
2023-03-26T05:04:29.616Z,17.50
2023-03-26T05:06:59.376Z,17.50
2023-03-26T05:09:34.360Z,17.50
2023-03-26T05:12:11.932Z,17.40
2023-03-26T05:14:51.162Z,17.40
2023-03-26T05:17:30.905Z,17.40
2023-03-26T05:19:58.228Z,17.40
2023-03-26T05:22:25.724Z,17.30
2023-03-26T05:25:12.916Z,17.30
2023-03-26T05:27:39.828Z,17.30
2023-03-26T05:30:07.819Z,17.30
2023-03-26T05:32:42.402Z,17.30
2023-03-26T05:35:10.114Z,17.30
2023-03-26T05:37:38.776Z,17.30
2023-03-26T05:40:12.226Z,17.30
2023-03-26T05:42:47.267Z,17.30
2023-03-26T05:45:28.542Z,17.30
2023-03-26T05:47:56.546Z,17.20
2023-03-26T05:50:25.633Z,17.20
2023-03-26T05:52:57.466Z,17.20
2023-03-26T05:55:50.373Z,17.20
2023-03-26T05:58:36.438Z,17.20
2023-03-26T06:01:44.772Z,17.20
2023-03-26T06:04:50.914Z,17.10
2023-03-26T06:07:36.472Z,17.10
2023-03-26T06:10:17.911Z,17.10
2023-03-26T06:12:46.098Z,17.10
2023-03-26T06:15:13.233Z,17.10
2023-03-26T06:18:06.316Z,17.10
2023-03-26T06:20:37.728Z,17.10
2023-03-26T06:23:16.149Z,17.00
2023-03-26T06:26:12.273Z,17.00
2023-03-26T06:29:05.272Z,17.00
2023-03-26T06:31:49.028Z,17.00
2023-03-26T06:34:19.301Z,17.00
2023-03-26T06:36:48.606Z,17.00
2023-03-26T06:39:16.147Z,17.00
2023-03-26T06:41:52.493Z,17.00
2023-03-26T06:44:42.400Z,17.00
2023-03-26T06:47:27.737Z,16.90
2023-03-26T06:50:13.074Z,16.90
2023-03-26T06:52:55.888Z,16.90
2023-03-26T06:55:31.903Z,16.90
2023-03-26T06:58:13.075Z,16.90
2023-03-26T07:01:02.549Z,16.90
2023-03-26T07:03:49.681Z,16.90
2023-03-26T07:06:35.245Z,16.90
2023-03-26T07:09:20.830Z,16.80
2023-03-26T07:12:26.992Z,16.80
2023-03-26T07:15:16.355Z,16.80
2023-03-26T07:17:54.811Z,16.80
2023-03-26T07:20:25.444Z,16.80
2023-03-26T07:22:53.630Z,16.80
2023-03-26T07:25:36.410Z,16.80
2023-03-26T07:28:25.558Z,16.70
2023-03-26T07:31:37.799Z,16.70
2023-03-26T07:34:40.550Z,16.70
2023-03-26T07:37:39.510Z,16.70
2023-03-26T07:40:18.510Z,16.70
2023-03-26T07:43:44.214Z,16.70
2023-03-26T07:46:32.312Z,16.70
2023-03-26T07:49:22.191Z,16.60
2023-03-26T07:52:08.632Z,16.60
2023-03-26T07:54:54.017Z,16.60
2023-03-26T07:58:14.625Z,16.60
2023-03-26T08:01:13.179Z,16.60
2023-03-26T08:03:49.695Z,16.60
2023-03-26T08:06:38.379Z,16.50
2023-03-26T08:09:56.243Z,16.60
2023-03-26T08:12:58.376Z,16.60
2023-03-26T08:15:37.908Z,16.60
2023-03-26T08:18:31.182Z,16.60
2023-03-26T08:21:09.884Z,16.60
2023-03-26T08:23:51.789Z,16.60
2023-03-26T08:26:44.075Z,16.50
2023-03-26T08:29:34.739Z,16.50
2023-03-26T08:32:04.966Z,16.50
2023-03-26T08:34:31.778Z,16.50
2023-03-26T08:36:58.512Z,16.50
2023-03-26T08:39:25.455Z,16.50
2023-03-26T08:42:01.024Z,16.50
2023-03-26T08:44:51.579Z,16.50
2023-03-26T08:47:56.867Z,16.50
2023-03-26T08:50:50.960Z,16.40
2023-03-26T08:54:00.303Z,16.50
2023-03-26T08:56:29.604Z,16.40
2023-03-26T08:59:14.506Z,16.40
2023-03-26T09:01:59.846Z,16.40
2023-03-26T09:04:49.853Z,16.40
2023-03-26T09:07:48.643Z,16.40
2023-03-26T09:10:51.054Z,16.40
2023-03-26T09:13:39.614Z,16.40
2023-03-26T09:16:18.272Z,16.40
2023-03-26T09:19:09.574Z,16.40
2023-03-26T09:22:05.471Z,16.40
2023-03-26T09:25:06.884Z,16.40
2023-03-26T09:27:44.624Z,16.40
2023-03-26T09:30:38.741Z,16.40
2023-03-26T09:33:49.676Z,16.40
2023-03-26T09:36:21.688Z,16.40
2023-03-26T09:39:08.850Z,16.40
2023-03-26T09:42:03.880Z,16.40
2023-03-26T09:45:00.759Z,16.40
2023-03-26T09:48:05.448Z,16.40
2023-03-26T09:51:06.305Z,16.40
2023-03-26T09:53:54.672Z,16.40
2023-03-26T09:56:44.919Z,16.40
2023-03-26T09:59:39.255Z,16.40
2023-03-26T10:02:47.053Z,16.40
2023-03-26T10:06:01.784Z,16.40
2023-03-26T10:08:47.551Z,16.40
2023-03-26T10:11:17.087Z,16.30
2023-03-26T10:14:07.219Z,16.40
2023-03-26T10:17:03.245Z,16.40
2023-03-26T10:19:48.468Z,16.30
2023-03-26T10:22:32.261Z,16.40
2023-03-26T10:25:14.072Z,16.40
2023-03-26T10:27:56.026Z,16.40
2023-03-26T10:30:42.726Z,16.40
2023-03-26T10:33:30.514Z,16.30
2023-03-26T10:36:06.959Z,16.30
2023-03-26T10:39:03.175Z,16.40
2023-03-26T10:42:08.188Z,16.40
2023-03-26T10:45:13.086Z,16.40
2023-03-26T10:48:00.340Z,16.40
2023-03-26T10:50:27.472Z,16.40
2023-03-26T10:52:54.176Z,16.40
2023-03-26T10:55:34.794Z,16.40
2023-03-26T10:58:11.500Z,16.40
2023-03-26T11:00:47.028Z,16.40
2023-03-26T11:03:22.794Z,16.40
2023-03-26T11:06:09.314Z,16.40
2023-03-26T11:09:02.710Z,16.40
2023-03-26T11:11:35.987Z,16.40
2023-03-26T11:14:16.829Z,16.40
2023-03-26T11:17:08.377Z,16.40
2023-03-26T11:19:54.229Z,16.40
2023-03-26T11:22:36.748Z,16.40
2023-03-26T11:25:09.185Z,16.30
2023-03-26T11:28:04.979Z,16.40
2023-03-26T11:31:00.172Z,16.40
2023-03-26T11:33:36.539Z,16.40
2023-03-26T11:36:08.704Z,16.40
2023-03-26T11:38:43.581Z,16.40
2023-03-26T11:41:33.007Z,16.40
2023-03-26T11:44:45.711Z,16.40
2023-03-26T11:47:15.966Z,16.40
2023-03-26T11:49:46.233Z,16.40
2023-03-26T11:52:15.135Z,16.40
2023-03-26T11:54:43.410Z,16.40
2023-03-26T11:57:24.918Z,16.40
2023-03-26T12:00:04.307Z,16.40
2023-03-26T12:02:42.054Z,16.40
2023-03-26T12:05:21.557Z,16.40
2023-03-26T12:08:00.284Z,16.40
2023-03-26T12:10:45.354Z,16.40
2023-03-26T12:13:35.914Z,16.50
2023-03-26T12:16:28.734Z,16.40
2023-03-26T12:19:30.704Z,16.50
2023-03-26T12:22:00.294Z,16.50
2023-03-26T12:24:27.376Z,16.40
2023-03-26T12:27:02.062Z,16.50
2023-03-26T12:29:34.321Z,16.50
2023-03-26T12:32:46.328Z,16.40
2023-03-26T12:35:29.212Z,16.50
2023-03-26T12:38:23.132Z,16.50
2023-03-26T12:41:05.321Z,16.50
2023-03-26T12:44:54.323Z,16.40
2023-03-26T12:47:57.876Z,16.40
2023-03-26T12:49:16.538Z,16.40
2023-03-26T12:52:07.120Z,16.50
2023-03-26T12:54:38.011Z,16.50
2023-03-26T12:57:25.264Z,16.50
2023-03-26T13:00:14.262Z,16.50
2023-03-26T13:02:50.630Z,16.50
2023-03-26T13:05:39.878Z,16.50
2023-03-26T13:08:21.364Z,16.50
2023-03-26T13:10:54.057Z,16.50
2023-03-26T13:13:50.231Z,16.50
2023-03-26T13:16:28.702Z,16.50
2023-03-26T13:19:17.464Z,16.50
2023-03-26T13:21:56.813Z,16.50
2023-03-26T13:24:37.022Z,16.50
2023-03-26T13:27:38.801Z,16.60
2023-03-26T13:30:43.208Z,16.50
2023-03-26T13:33:26.952Z,16.50
2023-03-26T13:36:21.917Z,16.50
2023-03-26T13:38:59.097Z,16.60
2023-03-26T13:42:01.634Z,16.60
2023-03-26T13:44:49.665Z,16.50
2023-03-26T13:47:19.574Z,16.50
2023-03-26T13:49:58.553Z,16.60
2023-03-26T13:52:48.218Z,16.60
2023-03-26T13:55:20.788Z,16.60
2023-03-26T13:58:12.557Z,16.60
2023-03-26T14:00:58.033Z,16.50
2023-03-26T14:03:33.538Z,16.50
2023-03-26T14:06:09.623Z,16.60
2023-03-26T14:08:51.490Z,16.50
2023-03-26T14:11:40.691Z,16.60
2023-03-26T14:14:14.089Z,16.60
2023-03-26T14:16:48.453Z,16.60
2023-03-26T14:19:44.286Z,16.60
2023-03-26T14:22:33.664Z,16.60
2023-03-26T14:25:20.022Z,16.50
2023-03-26T14:28:13.816Z,16.50
2023-03-26T14:30:54.340Z,16.50
2023-03-26T14:33:49.597Z,16.60
2023-03-26T14:36:40.868Z,16.50
2023-03-26T14:39:33.443Z,16.50
2023-03-26T14:42:31.071Z,16.50
2023-03-26T14:45:22.433Z,16.50
2023-03-26T14:48:24.733Z,16.50
2023-03-26T14:51:04.516Z,16.50
2023-03-26T14:53:37.831Z,16.50
2023-03-26T14:56:15.750Z,16.50
2023-03-26T14:58:42.719Z,16.50
2023-03-26T15:01:29.501Z,16.50
2023-03-26T15:04:19.756Z,16.50
2023-03-26T15:07:12.759Z,16.50
2023-03-26T15:10:06.015Z,16.50
2023-03-26T15:12:52.153Z,16.50
2023-03-26T15:15:35.028Z,16.50
2023-03-26T15:18:25.390Z,16.60
2023-03-26T15:21:30.583Z,16.50
2023-03-26T15:24:11.996Z,16.50
2023-03-26T15:27:29.778Z,16.60
2023-03-26T15:30:26.968Z,16.50
2023-03-26T15:33:19.969Z,16.50
2023-03-26T15:36:21.558Z,16.50
2023-03-26T15:39:23.401Z,16.50
2023-03-26T15:42:13.370Z,16.50
2023-03-26T15:45:00.623Z,16.50
2023-03-26T15:47:49.711Z,16.50
2023-03-26T15:50:31.039Z,16.50
2023-03-26T15:53:18.645Z,16.50
2023-03-26T15:56:14.001Z,16.50
2023-03-26T15:58:59.997Z,16.50
2023-03-26T16:01:35.129Z,16.50
2023-03-26T16:04:21.360Z,16.50
2023-03-26T16:06:59.064Z,16.50
2023-03-26T16:09:54.399Z,16.50
2023-03-26T16:12:26.351Z,16.50
2023-03-26T16:15:19.795Z,16.60
2023-03-26T16:18:15.484Z,16.60
2023-03-26T16:21:01.872Z,16.50
2023-03-26T16:23:55.122Z,16.50
2023-03-26T16:26:37.197Z,16.50
2023-03-26T16:29:22.166Z,16.60
2023-03-26T16:32:07.423Z,16.60
2023-03-26T16:34:57.297Z,16.50
2023-03-26T16:37:36.343Z,16.60
2023-03-26T16:40:20.147Z,16.60
2023-03-26T16:42:46.741Z,16.60
2023-03-26T16:45:22.897Z,16.60
2023-03-26T16:48:19.875Z,16.60
2023-03-26T16:50:57.422Z,16.60
2023-03-26T16:53:46.490Z,16.70
2023-03-26T16:56:48.903Z,16.70
2023-03-26T16:59:46.593Z,16.70
2023-03-26T17:02:41.765Z,16.80
2023-03-26T17:05:34.136Z,16.90
2023-03-26T17:08:36.274Z,17.10
2023-03-26T17:11:21.441Z,17.40
2023-03-26T17:14:07.413Z,17.70
2023-03-26T17:16:46.047Z,18.10
2023-03-26T17:19:19.158Z,18.50
2023-03-26T17:22:18.422Z,18.80
2023-03-26T17:25:04.623Z,19.20
2023-03-26T17:28:25.222Z,19.50
2023-03-26T17:31:02.061Z,19.90
2023-03-26T17:33:38.741Z,20.10
2023-03-26T17:36:11.733Z,20.30
2023-03-26T17:38:45.469Z,20.50
2023-03-26T17:41:15.426Z,20.60
2023-03-26T17:43:51.755Z,20.70
2023-03-26T17:46:39.113Z,20.90
2023-03-26T17:49:11.558Z,21.00
2023-03-26T17:52:15.042Z,21.10
2023-03-26T17:54:50.416Z,21.10
2023-03-26T17:57:25.250Z,21.20
2023-03-26T17:59:57.329Z,21.40
2023-03-26T18:02:55.834Z,21.50
2023-03-26T18:05:27.052Z,21.70
2023-03-26T18:08:22.080Z,21.70
2023-03-26T18:11:07.985Z,21.90
2023-03-26T18:14:16.573Z,22.10
2023-03-26T18:16:50.955Z,22.30
2023-03-26T18:19:19.779Z,22.30
2023-03-26T18:21:51.938Z,22.40
2023-03-26T18:24:27.558Z,22.40
2023-03-26T18:26:58.712Z,22.50
2023-03-26T18:29:27.849Z,22.50
2023-03-26T18:31:54.646Z,22.60
2023-03-26T18:34:22.192Z,22.60
2023-03-26T18:37:01.022Z,22.60
2023-03-26T18:39:27.953Z,22.60
2023-03-26T18:41:55.021Z,22.60
2023-03-26T18:44:21.993Z,22.60
2023-03-26T18:46:48.745Z,22.60
2023-03-26T18:49:17.284Z,22.60
2023-03-26T18:51:56.241Z,22.60
2023-03-26T18:54:24.592Z,22.60
2023-03-26T18:56:52.536Z,22.50
2023-03-26T18:59:31.881Z,22.50
2023-03-26T19:02:04.019Z,22.50
2023-03-26T19:04:33.829Z,22.50
2023-03-26T19:07:01.766Z,22.40
2023-03-26T19:09:32.507Z,22.40
2023-03-26T19:12:06.953Z,22.40
2023-03-26T19:14:37.230Z,22.40
2023-03-26T19:17:05.924Z,22.30
2023-03-26T19:19:39.280Z,22.30
2023-03-26T19:22:07.241Z,22.30
2023-03-26T19:24:34.428Z,22.20
2023-03-26T19:27:01.339Z,22.20
2023-03-26T19:29:32.123Z,22.10
2023-03-26T19:32:32.303Z,22.10
2023-03-26T19:35:00.780Z,22.10
2023-03-26T19:37:29.999Z,22.00
2023-03-26T19:40:14.450Z,21.90
2023-03-26T19:42:44.724Z,21.90
2023-03-26T19:45:21.796Z,21.90
2023-03-26T19:48:00.008Z,21.80
2023-03-26T19:50:36.768Z,21.80
2023-03-26T19:53:19.045Z,21.70
2023-03-26T19:55:57.359Z,21.70
2023-03-26T19:58:26.243Z,21.60
2023-03-26T20:00:53.691Z,21.60
2023-03-26T20:03:40.860Z,21.50
2023-03-26T20:06:12.785Z,21.50
2023-03-26T20:08:40.648Z,21.40
2023-03-26T20:11:20.258Z,21.40
2023-03-26T20:13:47.778Z,21.30
2023-03-26T20:16:29.265Z,21.30
2023-03-26T20:18:57.264Z,21.20
2023-03-26T20:21:25.344Z,21.20
2023-03-26T20:23:55.842Z,21.10
2023-03-26T20:26:24.073Z,21.10
2023-03-26T20:28:53.407Z,21.00
2023-03-26T20:31:26.214Z,21.00
2023-03-26T20:33:54.050Z,20.90
2023-03-26T20:36:33.291Z,20.90
2023-03-26T20:39:05.994Z,20.80
2023-03-26T20:41:34.188Z,20.80
2023-03-26T20:44:03.531Z,20.70
2023-03-26T20:46:31.273Z,20.70
2023-03-26T20:48:59.747Z,20.60
2023-03-26T20:51:28.165Z,20.60
2023-03-26T20:53:56.184Z,20.50
2023-03-26T20:56:23.248Z,20.50
2023-03-26T20:59:03.610Z,20.50
2023-03-26T21:01:35.016Z,20.40
2023-03-26T21:04:04.137Z,20.40
2023-03-26T21:06:30.953Z,20.30
2023-03-26T21:08:58.032Z,20.30
2023-03-26T21:11:39.893Z,20.20
2023-03-26T21:14:27.538Z,20.20
2023-03-26T21:16:54.611Z,20.10
2023-03-26T21:19:21.686Z,20.10
2023-03-26T21:22:00.153Z,20.00
2023-03-26T21:24:50.534Z,20.00
2023-03-26T21:27:40.884Z,19.90
2023-03-26T21:30:16.322Z,19.80
2023-03-26T21:32:45.534Z,19.80
2023-03-26T21:35:14.625Z,19.80
2023-03-26T21:37:43.090Z,19.80
2023-03-26T21:40:14.792Z,19.70
2023-03-26T21:42:42.853Z,19.60
2023-03-26T21:45:10.457Z,19.60
2023-03-26T21:47:37.575Z,19.60
2023-03-26T21:50:07.342Z,19.50
2023-03-26T21:52:34.832Z,19.50
2023-03-26T21:55:03.873Z,19.50
2023-03-26T21:57:47.161Z,19.50
2023-03-26T22:00:18.353Z,19.40
2023-03-26T22:03:10.005Z,19.40
2023-03-26T22:05:43.331Z,19.40
2023-03-26T22:08:36.722Z,19.40
2023-03-26T22:11:03.450Z,19.40
2023-03-26T22:13:30.930Z,19.30
2023-03-26T22:15:57.727Z,19.30
2023-03-26T22:18:25.915Z,19.30
2023-03-26T22:20:53.004Z,19.20
2023-03-26T22:23:19.867Z,19.20
2023-03-26T22:25:46.984Z,19.20
2023-03-26T22:28:14.498Z,19.20
2023-03-26T22:30:41.527Z,19.20
2023-03-26T22:33:10.816Z,19.10
2023-03-26T22:35:38.686Z,19.10
2023-03-26T22:38:05.454Z,19.00
2023-03-26T22:40:32.201Z,19.00
2023-03-26T22:42:58.937Z,19.00
2023-03-26T22:45:26.178Z,19.00
2023-03-26T22:47:53.212Z,19.00
2023-03-26T22:50:31.433Z,18.90
2023-03-26T22:52:58.141Z,18.90
2023-03-26T22:55:29.133Z,18.90
2023-03-26T22:57:56.991Z,18.80
2023-03-26T23:00:23.911Z,18.80
2023-03-26T23:02:50.627Z,18.80
2023-03-26T23:05:18.094Z,18.70
2023-03-26T23:07:46.078Z,18.70
2023-03-26T23:10:13.046Z,18.70
2023-03-26T23:12:40.317Z,18.70
2023-03-26T23:15:08.900Z,18.70
2023-03-26T23:17:37.464Z,18.60
2023-03-26T23:20:12.433Z,18.60
2023-03-26T23:22:39.123Z,18.50
2023-03-26T23:25:07.218Z,18.50
2023-03-26T23:27:34.067Z,18.50
2023-03-26T23:30:01.308Z,18.50
2023-03-26T23:32:28.225Z,18.50
2023-03-26T23:34:57.984Z,18.40
2023-03-26T23:37:24.726Z,18.40
2023-03-26T23:39:52.166Z,18.40
2023-03-26T23:42:28.678Z,18.30
2023-03-26T23:44:57.155Z,18.30
2023-03-26T23:47:24.301Z,18.30
2023-03-26T23:49:51.228Z,18.30
2023-03-26T23:52:18.338Z,18.30
2023-03-26T23:54:45.467Z,18.30
2023-03-26T23:57:12.356Z,18.20
2023-03-26T23:59:41.425Z,18.20
